createdAt,value
2019-04-20T00:00:00.812Z,14.60
2019-04-20T00:02:29.876Z,14.60
2019-04-20T00:05:01.092Z,14.70
2019-04-20T00:07:35.623Z,14.70
2019-04-20T00:10:10.113Z,14.70
2019-04-20T00:12:51.151Z,14.70
2019-04-20T00:15:07.208Z,14.80
2019-04-20T00:17:39.403Z,14.80
2019-04-20T00:20:15.520Z,14.80
2019-04-20T00:22:58.108Z,14.80
2019-04-20T00:26:00.469Z,14.80
2019-04-20T00:28:39.880Z,14.80
2019-04-20T00:31:09.746Z,14.80
2019-04-20T00:33:37.346Z,14.70
2019-04-20T00:35:55.359Z,14.80
2019-04-20T00:38:27.637Z,14.70
2019-04-20T00:41:03.672Z,14.60
2019-04-20T00:43:32.830Z,14.60
2019-04-20T00:46:10.358Z,14.60
2019-04-20T00:48:41.607Z,14.50
2019-04-20T00:51:23.942Z,14.50
2019-04-20T00:53:39.657Z,14.50
2019-04-20T00:56:07.239Z,14.50
2019-04-20T00:58:54.717Z,14.50
2019-04-20T01:01:33.566Z,14.50
2019-04-20T01:04:02.197Z,14.40
2019-04-20T01:06:34.138Z,14.30
2019-04-20T01:08:53.058Z,14.20
2019-04-20T01:11:30.041Z,14.20
2019-04-20T01:13:58.855Z,14.20
2019-04-20T01:16:35.443Z,14.20
2019-04-20T01:18:57.548Z,14.20
2019-04-20T01:21:31.275Z,14.20
2019-04-20T01:24:02.940Z,14.20
2019-04-20T01:26:31.349Z,14.20
2019-04-20T01:29:13.725Z,14.20
2019-04-20T01:31:38.391Z,14.10
2019-04-20T01:34:19.467Z,14.10
2019-04-20T01:36:52.062Z,14.10
2019-04-20T01:39:18.395Z,14.00
2019-04-20T01:41:39.322Z,14.10
2019-04-20T01:44:09.490Z,14.10
2019-04-20T01:46:48.781Z,14.10
2019-04-20T01:49:18.232Z,14.00
2019-04-20T01:51:53.832Z,13.90
2019-04-20T01:54:31.130Z,13.70
2019-04-20T01:56:59.285Z,13.60
2019-04-20T01:59:34.489Z,13.40
2019-04-20T02:02:15.236Z,13.30
2019-04-20T02:04:48.220Z,13.30
2019-04-20T02:07:18.465Z,13.30
2019-04-20T02:09:53.514Z,13.20
2019-04-20T02:12:22.367Z,13.30
2019-04-20T02:14:54.066Z,13.40
2019-04-20T02:17:30.019Z,13.50
2019-04-20T02:20:12.044Z,13.50
2019-04-20T02:22:44.731Z,13.40
2019-04-20T02:24:55.372Z,13.40
2019-04-20T02:27:34.340Z,13.30
2019-04-20T02:30:29.973Z,13.20
2019-04-20T02:33:10.069Z,13.20
2019-04-20T02:35:46.010Z,13.20
2019-04-20T02:38:15.287Z,13.10
2019-04-20T02:40:47.210Z,13.10
2019-04-20T02:43:16.832Z,13.10
2019-04-20T02:48:15.924Z,13.00
2019-04-20T02:50:56.255Z,13.00
2019-04-20T02:53:20.344Z,13.00
2019-04-20T02:58:23.648Z,13.00
2019-04-20T03:00:44.774Z,12.90
2019-04-20T03:03:08.992Z,12.90
2019-04-20T03:05:35.897Z,12.80
2019-04-20T03:08:15.440Z,12.80
2019-04-20T03:10:56.676Z,12.80
2019-04-20T03:13:20.928Z,12.80
2019-04-20T03:15:48.175Z,12.70
2019-04-20T03:18:26.507Z,12.70
2019-04-20T03:20:57.560Z,12.70
2019-04-20T03:23:30.072Z,12.80
2019-04-20T03:26:19.192Z,12.70
2019-04-20T03:29:01.818Z,12.70
2019-04-20T03:37:04.689Z,12.70
2019-04-20T03:39:23.333Z,12.70
2019-04-20T03:41:44.435Z,12.70
2019-04-20T03:44:16.079Z,12.70
2019-04-20T03:46:50.433Z,12.70
2019-04-20T03:49:38.053Z,12.70
2019-04-20T03:52:24.581Z,12.60
2019-04-20T03:55:01.366Z,12.70
2019-04-20T03:57:49.748Z,12.50
2019-04-20T04:00:16.216Z,12.50
2019-04-20T04:03:10.973Z,12.40
2019-04-20T04:05:27.501Z,12.50
2019-04-20T04:07:46.628Z,12.50
2019-04-20T04:10:27.250Z,12.50
2019-04-20T04:13:03.360Z,12.50
2019-04-20T04:15:37.054Z,12.60
2019-04-20T04:18:13.884Z,12.50
2019-04-20T04:20:46.504Z,12.50
2019-04-20T04:23:25.032Z,12.50
2019-04-20T04:26:01.521Z,12.50
2019-04-20T04:28:28.556Z,12.50
2019-04-20T04:31:05.119Z,12.50
2019-04-20T04:36:01.110Z,12.50
2019-04-20T04:38:41.934Z,12.40
2019-04-20T04:41:16.731Z,12.50
2019-04-20T04:43:39.999Z,12.40
2019-04-20T04:45:53.318Z,12.50
2019-04-20T04:48:29.996Z,12.50
2019-04-20T04:51:01.269Z,12.40
2019-04-20T04:53:40.750Z,12.40
2019-04-20T04:56:04.927Z,12.50
2019-04-20T04:58:29.814Z,12.50
2019-04-20T05:01:05.521Z,12.50
2019-04-20T05:04:00.603Z,12.50
2019-04-20T05:06:24.999Z,12.60
2019-04-20T05:08:45.404Z,12.60
2019-04-20T05:11:13.185Z,12.60
2019-04-20T05:13:50.573Z,12.70
2019-04-20T05:16:36.008Z,12.70
2019-04-20T05:19:14.772Z,12.80
2019-04-20T05:22:07.937Z,12.90
2019-04-20T05:24:29.280Z,12.90
2019-04-20T05:27:09.391Z,13.10
2019-04-20T05:29:24.150Z,13.20
2019-04-20T05:31:54.368Z,13.20
2019-04-20T05:34:45.071Z,13.20
2019-04-20T05:37:23.648Z,13.30
2019-04-20T05:39:47.441Z,13.40
2019-04-20T05:42:17.688Z,13.50
2019-04-20T05:44:49.927Z,13.60
2019-04-20T05:47:21.718Z,13.70
2019-04-20T05:49:49.998Z,13.80
2019-04-20T05:52:36.406Z,13.90
2019-04-20T05:54:58.402Z,14.00
2019-04-20T05:57:31.922Z,14.00
2019-04-20T06:00:01.843Z,14.10
2019-04-20T06:02:27.275Z,14.10
2019-04-20T06:05:04.407Z,14.10
2019-04-20T06:07:31.121Z,14.10
2019-04-20T06:10:06.137Z,14.20
2019-04-20T06:12:35.770Z,14.20
2019-04-20T06:15:09.228Z,14.20
2019-04-20T06:18:05.161Z,14.20
2019-04-20T06:23:34.595Z,14.30
2019-04-20T06:26:12.735Z,14.40
2019-04-20T06:28:25.870Z,14.50
2019-04-20T06:30:59.454Z,14.50
2019-04-20T06:39:22.572Z,14.60
2019-04-20T06:44:30.258Z,14.80
2019-04-20T06:47:00.114Z,14.90
2019-04-20T06:52:15.428Z,14.90
2019-04-20T06:54:56.545Z,15.00
2019-04-20T06:57:31.077Z,15.20
2019-04-20T07:00:00.813Z,15.20
2019-04-20T07:02:35.986Z,15.40
2019-04-20T07:05:06.990Z,15.40
2019-04-20T07:07:36.034Z,15.60
2019-04-20T07:10:16.254Z,15.60
2019-04-20T07:12:39.884Z,15.70
2019-04-20T07:14:58.832Z,15.80
2019-04-20T07:20:15.984Z,16.00
2019-04-20T07:22:56.934Z,16.10
2019-04-20T07:25:27.350Z,16.20
2019-04-20T07:27:53.754Z,16.30
2019-04-20T07:30:22.909Z,16.40
2019-04-20T07:32:58.311Z,16.60
2019-04-20T07:35:30.387Z,16.70
2019-04-20T07:38:16.801Z,16.70
2019-04-20T07:40:29.148Z,16.80
2019-04-20T07:43:21.463Z,16.90
2019-04-20T07:45:49.017Z,17.00
2019-04-20T07:48:11.384Z,17.00
2019-04-20T07:50:32.113Z,17.20
2019-04-20T07:53:04.363Z,17.40
2019-04-20T07:58:06.183Z,17.70
2019-04-20T08:00:59.997Z,17.80
2019-04-20T08:03:34.712Z,17.80
2019-04-20T08:05:56.220Z,17.90
2019-04-20T08:08:32.686Z,18.10
2019-04-20T08:11:10.380Z,18.10
2019-04-20T08:13:47.898Z,18.20
2019-04-20T08:16:20.697Z,18.20
2019-04-20T08:18:44.077Z,18.40
2019-04-20T08:21:16.719Z,18.40
2019-04-20T08:23:44.127Z,18.50
2019-04-20T08:26:07.812Z,18.60
2019-04-20T08:28:39.184Z,18.80
2019-04-20T08:31:24.518Z,18.90
2019-04-20T08:34:15.148Z,19.00
2019-04-20T08:36:39.198Z,19.10
2019-04-20T08:41:29.664Z,19.40
2019-04-20T08:44:21.738Z,19.50
2019-04-20T08:46:47.555Z,19.60
2019-04-20T08:49:21.341Z,19.70
2019-04-20T08:51:50.085Z,19.80
2019-04-20T08:54:14.419Z,19.80
2019-04-20T08:56:37.098Z,19.70
2019-04-20T08:58:57.871Z,19.90
2019-04-20T09:01:31.057Z,20.10
2019-04-20T09:04:07.519Z,20.10
2019-04-20T09:06:47.023Z,20.20
2019-04-20T09:09:31.861Z,20.20
2019-04-20T09:11:55.603Z,20.50
2019-04-20T09:14:18.561Z,20.70
2019-04-20T09:16:57.013Z,20.70
2019-04-20T09:19:34.389Z,20.80
2019-04-20T09:22:24.345Z,21.00
2019-04-20T09:25:13.262Z,21.20
2019-04-20T09:27:25.336Z,21.30
2019-04-20T09:30:03.326Z,21.40
2019-04-20T09:32:34.286Z,21.60
2019-04-20T09:35:17.647Z,21.70
2019-04-20T09:37:45.859Z,21.80
2019-04-20T09:40:30.888Z,22.00
2019-04-20T09:42:46.261Z,21.90
2019-04-20T09:45:25.854Z,21.80
2019-04-20T09:47:52.885Z,21.90
2019-04-20T09:50:37.568Z,22.10
2019-04-20T09:53:08.963Z,22.20
2019-04-20T09:55:34.753Z,22.40
2019-04-20T09:58:10.092Z,22.50
2019-04-20T10:00:46.931Z,22.70
2019-04-20T10:03:02.360Z,22.90
2019-04-20T10:05:33.682Z,23.00
2019-04-20T10:08:07.973Z,23.00
2019-04-20T10:10:40.520Z,23.20
2019-04-20T10:13:07.344Z,23.30
2019-04-20T10:15:37.564Z,23.40
2019-04-20T10:18:07.983Z,23.50
2019-04-20T10:20:39.809Z,23.40
2019-04-20T10:23:10.637Z,23.50
2019-04-20T10:25:40.448Z,23.60
2019-04-20T10:28:11.662Z,23.80
2019-04-20T10:30:41.700Z,24.10
2019-04-20T10:33:11.514Z,24.20
2019-04-20T10:35:41.429Z,24.30
2019-04-20T10:38:13.758Z,24.30
2019-04-20T10:40:55.893Z,24.50
2019-04-20T10:43:16.228Z,24.40
2019-04-20T10:45:46.855Z,24.30
2019-04-20T10:48:17.318Z,24.30
2019-04-20T10:50:47.362Z,24.40
2019-04-20T10:53:17.618Z,24.40
2019-04-20T10:55:49.514Z,24.50
2019-04-20T10:58:19.725Z,24.50
2019-04-20T11:00:50.254Z,24.60
2019-04-20T11:03:22.710Z,24.70
2019-04-20T11:05:53.005Z,24.80
2019-04-20T11:08:22.926Z,24.80
2019-04-20T11:11:03.435Z,24.80
2019-04-20T11:13:25.448Z,24.90
2019-04-20T11:15:56.611Z,25.00
2019-04-20T11:18:27.340Z,25.20
2019-04-20T11:20:57.443Z,25.20
2019-04-20T11:23:28.377Z,25.40
2019-04-20T11:25:58.499Z,25.40
2019-04-20T11:28:28.313Z,25.40
2019-04-20T11:30:58.509Z,25.40
2019-04-20T11:33:29.930Z,25.30
2019-04-20T11:36:01.016Z,25.20
2019-04-20T11:38:30.990Z,25.40
2019-04-20T11:41:10.338Z,25.40
2019-04-20T11:43:33.522Z,25.30
2019-04-20T11:46:04.710Z,25.20
2019-04-20T11:48:37.171Z,25.40
2019-04-20T11:51:09.420Z,25.50
2019-04-20T11:53:40.442Z,25.60
2019-04-20T11:56:14.457Z,25.80
2019-04-20T11:58:42.812Z,25.90
2019-04-20T12:01:18.672Z,25.90
2019-04-20T12:03:55.455Z,25.80
2019-04-20T12:06:18.906Z,25.70
2019-04-20T12:08:49.206Z,25.80
2019-04-20T12:11:30.925Z,25.90
2019-04-20T12:13:50.609Z,26.00
2019-04-20T12:16:21.510Z,26.10
2019-04-20T12:18:52.503Z,26.00
2019-04-20T12:21:23.153Z,25.90
2019-04-20T12:23:54.070Z,25.90
2019-04-20T12:26:26.816Z,25.80
2019-04-20T12:28:57.895Z,25.90
2019-04-20T12:31:29.386Z,26.00
2019-04-20T12:34:00.192Z,26.00
2019-04-20T12:36:30.295Z,25.90
2019-04-20T12:39:01.206Z,25.90
2019-04-20T12:41:39.772Z,26.10
2019-04-20T12:44:05.689Z,25.90
2019-04-20T12:46:36.000Z,26.10
2019-04-20T12:49:05.840Z,26.20
2019-04-20T12:51:47.996Z,26.10
2019-04-20T12:54:07.103Z,26.00
2019-04-20T12:56:38.086Z,26.00
2019-04-20T12:59:09.517Z,26.10
2019-04-20T13:01:39.672Z,26.40
2019-04-20T13:04:09.657Z,26.50
2019-04-20T13:06:40.847Z,26.70
2019-04-20T13:09:12.345Z,26.80
2019-04-20T13:11:55.533Z,26.80
2019-04-20T13:14:42.292Z,27.10
2019-04-20T13:17:12.484Z,27.30
2019-04-20T13:19:42.311Z,27.30
2019-04-20T13:22:12.932Z,27.40
2019-04-20T13:24:43.229Z,26.90
2019-04-20T13:27:14.324Z,27.40
2019-04-20T13:29:47.216Z,28.00
2019-04-20T13:32:16.101Z,28.90
2019-04-20T13:34:46.550Z,29.10
2019-04-20T13:37:16.518Z,30.20
2019-04-20T13:39:47.412Z,30.90
2019-04-20T13:42:22.701Z,31.50
2019-04-20T13:44:48.865Z,32.40
2019-04-20T13:47:19.087Z,33.30
2019-04-20T13:49:49.252Z,33.70
2019-04-20T13:52:20.280Z,34.00
2019-04-20T13:54:50.550Z,33.60
2019-04-20T13:57:23.911Z,33.30
2019-04-20T14:00:02.207Z,34.00
2019-04-20T14:02:40.942Z,34.60
2019-04-20T14:05:12.866Z,34.10
2019-04-20T14:07:42.817Z,34.20
2019-04-20T14:10:13.385Z,34.10
2019-04-20T14:12:53.411Z,34.30
2019-04-20T14:15:15.287Z,34.50
2019-04-20T14:17:45.282Z,34.90
2019-04-20T14:20:17.512Z,35.30
2019-04-20T14:22:47.275Z,34.70
2019-04-20T14:25:18.398Z,34.60
2019-04-20T14:27:48.721Z,34.60
2019-04-20T14:30:19.252Z,35.10
2019-04-20T14:32:50.419Z,35.60
2019-04-20T14:35:20.809Z,35.60
2019-04-20T14:37:51.997Z,34.80
2019-04-20T14:40:22.142Z,34.60
2019-04-20T14:42:54.798Z,34.40
2019-04-20T14:45:24.754Z,34.40
2019-04-20T14:47:54.672Z,34.60
2019-04-20T14:50:25.633Z,35.10
2019-04-20T14:52:55.631Z,34.70
2019-04-20T14:55:25.838Z,34.50
2019-04-20T14:57:57.461Z,34.20
2019-04-20T15:00:37.893Z,34.20
2019-04-20T15:03:28.297Z,34.80
2019-04-20T15:06:00.135Z,35.30
2019-04-20T15:08:30.404Z,36.00
2019-04-20T15:11:01.006Z,35.20
2019-04-20T15:13:30.940Z,35.00
2019-04-20T15:16:02.289Z,35.20
2019-04-20T15:18:33.981Z,34.70
2019-04-20T15:21:05.786Z,34.40
2019-04-20T15:23:37.049Z,34.50
2019-04-20T15:26:08.591Z,34.90
2019-04-20T15:28:39.603Z,34.60
2019-04-20T15:31:10.105Z,34.40
2019-04-20T15:33:41.080Z,34.70
2019-04-20T15:36:11.057Z,35.20
2019-04-20T15:38:40.977Z,35.00
2019-04-20T15:41:13.253Z,34.80
2019-04-20T15:43:43.504Z,33.90
2019-04-20T15:46:13.502Z,33.20
2019-04-20T15:48:44.017Z,32.30
2019-04-20T15:51:14.198Z,31.30
2019-04-20T15:53:44.089Z,30.70
2019-04-20T15:56:14.472Z,30.40
2019-04-20T15:58:44.380Z,29.40
2019-04-20T16:01:18.438Z,28.90
2019-04-20T16:03:57.149Z,28.30
2019-04-20T16:06:27.387Z,27.90
2019-04-20T16:09:00.034Z,27.90
2019-04-20T16:11:32.812Z,27.90
2019-04-20T16:14:03.508Z,27.80
2019-04-20T16:16:34.382Z,27.70
2019-04-20T16:19:14.724Z,27.70
2019-04-20T16:21:37.407Z,27.30
2019-04-20T16:24:10.887Z,27.10
2019-04-20T16:26:44.008Z,27.10
2019-04-20T16:29:15.376Z,27.00
2019-04-20T16:31:47.206Z,26.80
2019-04-20T16:34:16.968Z,26.50
2019-04-20T16:36:46.793Z,26.80
2019-04-20T16:39:16.688Z,28.00
2019-04-20T16:41:46.717Z,28.30
2019-04-20T16:44:17.570Z,28.20
2019-04-20T16:46:48.092Z,27.80
2019-04-20T16:49:19.298Z,27.60
2019-04-20T16:51:50.362Z,27.10
2019-04-20T16:54:21.894Z,26.60
2019-04-20T16:56:52.974Z,26.30
2019-04-20T16:59:24.716Z,25.80
2019-04-20T17:01:56.068Z,25.60
2019-04-20T17:04:28.912Z,25.40
2019-04-20T17:07:16.521Z,25.10
2019-04-20T17:09:49.608Z,24.90
2019-04-20T17:12:19.681Z,24.80
2019-04-20T17:14:49.533Z,24.70
2019-04-20T17:17:19.738Z,24.60
2019-04-20T17:19:51.486Z,24.40
2019-04-20T17:22:21.573Z,24.20
2019-04-20T17:24:51.669Z,24.10
2019-04-20T17:27:39.393Z,24.00
2019-04-20T17:30:10.926Z,24.00
2019-04-20T17:32:41.225Z,23.90
2019-04-20T17:35:20.627Z,23.80
2019-04-20T17:37:45.078Z,23.80
2019-04-20T17:40:36.821Z,23.70
2019-04-20T17:42:56.843Z,23.60
2019-04-20T17:45:32.335Z,23.50
2019-04-20T17:48:08.847Z,23.40
2019-04-20T17:50:46.465Z,23.30
2019-04-20T17:53:16.934Z,23.20
2019-04-20T17:55:40.409Z,23.10
2019-04-20T17:58:14.736Z,23.00
2019-04-20T18:00:47.021Z,22.90
2019-04-20T18:03:55.673Z,22.80
2019-04-20T18:06:14.122Z,22.80
2019-04-20T18:08:45.491Z,22.70
2019-04-20T18:11:03.739Z,22.60
2019-04-20T18:13:30.318Z,22.60
2019-04-20T18:16:22.230Z,22.50
2019-04-20T18:18:59.541Z,22.40
2019-04-20T18:21:21.981Z,22.40
2019-04-20T18:23:51.955Z,22.30
2019-04-20T18:26:45.355Z,22.30
2019-04-20T18:29:10.341Z,22.20
2019-04-20T18:31:26.400Z,22.20
2019-04-20T18:34:02.846Z,22.10
2019-04-20T18:36:34.404Z,22.20
2019-04-20T18:39:04.973Z,22.10
2019-04-20T18:41:43.016Z,22.00
2019-04-20T18:44:06.512Z,21.80
2019-04-20T18:47:00.360Z,21.60
2019-04-20T18:49:23.657Z,21.50
2019-04-20T18:51:39.885Z,21.40
2019-04-20T18:54:17.375Z,21.30
2019-04-20T18:56:45.865Z,21.20
2019-04-20T18:59:14.402Z,21.10
2019-04-20T19:01:45.460Z,21.00
2019-04-20T19:04:15.898Z,21.00
2019-04-20T19:06:45.948Z,20.90
2019-04-20T19:09:21.630Z,20.90
2019-04-20T19:11:54.676Z,20.80
2019-04-20T19:14:35.593Z,20.70
2019-04-20T19:17:28.917Z,20.80
2019-04-20T19:19:57.022Z,20.70
2019-04-20T19:22:26.078Z,20.70
2019-04-20T19:24:57.978Z,20.70
2019-04-20T19:27:35.792Z,20.70
2019-04-20T19:30:11.623Z,20.60
2019-04-20T19:32:45.216Z,20.70
2019-04-20T19:35:08.536Z,20.60
2019-04-20T19:37:48.770Z,20.60
2019-04-20T19:40:15.953Z,20.50
2019-04-20T19:42:47.973Z,20.40
2019-04-20T19:45:40.981Z,20.30
2019-04-20T19:47:54.472Z,20.30
2019-04-20T19:53:11.275Z,20.10
2019-04-20T19:55:33.082Z,20.20
2019-04-20T19:58:03.020Z,20.20
2019-04-20T20:00:22.828Z,20.20
2019-04-20T20:02:54.121Z,20.20
2019-04-20T20:05:31.407Z,20.00
2019-04-20T20:08:03.781Z,20.00
2019-04-20T20:10:32.036Z,20.10
2019-04-20T20:13:01.213Z,20.10
2019-04-20T20:15:34.342Z,20.20
2019-04-20T20:18:19.678Z,20.10
2019-04-20T20:20:52.453Z,20.10
2019-04-20T20:23:05.706Z,20.00
2019-04-20T20:25:40.440Z,19.90
2019-04-20T20:28:19.004Z,19.90
2019-04-20T20:30:53.739Z,19.90
2019-04-20T20:33:30.668Z,19.70
2019-04-20T20:35:51.885Z,19.70
2019-04-20T20:38:19.108Z,19.70
2019-04-20T20:40:54.609Z,19.70
2019-04-20T20:43:24.235Z,19.60
2019-04-20T20:46:01.192Z,19.50
2019-04-20T20:48:36.987Z,19.50
2019-04-20T20:51:09.197Z,19.50
2019-04-20T20:53:36.333Z,19.40
2019-04-20T20:56:07.864Z,19.40
2019-04-20T20:58:36.165Z,19.30
2019-04-20T21:01:06.772Z,19.10
2019-04-20T21:03:36.004Z,19.00
2019-04-20T21:06:00.091Z,19.00
2019-04-20T21:08:31.225Z,19.00
2019-04-20T21:11:04.832Z,19.00
2019-04-20T21:13:39.473Z,18.90
2019-04-20T21:16:12.011Z,18.70
2019-04-20T21:18:52.586Z,18.60
2019-04-20T21:21:21.860Z,18.60
2019-04-20T21:23:49.253Z,18.60
2019-04-20T21:26:16.913Z,18.60
2019-04-20T21:28:43.734Z,18.40
2019-04-20T21:31:21.979Z,18.30
2019-04-20T21:33:46.901Z,18.20
2019-04-20T21:36:19.134Z,18.10
2019-04-20T21:38:49.916Z,18.10
2019-04-20T21:41:29.478Z,18.00
2019-04-20T21:44:01.364Z,18.00
2019-04-20T21:46:40.874Z,17.90
2019-04-20T21:49:21.616Z,17.80
2019-04-20T21:51:45.645Z,17.80
2019-04-20T21:54:06.772Z,17.80
2019-04-20T21:56:48.944Z,17.80
2019-04-20T21:59:17.590Z,17.80
2019-04-20T22:01:47.722Z,17.80
2019-04-20T22:04:12.453Z,17.70
2019-04-20T22:06:42.444Z,17.70
2019-04-20T22:09:12.824Z,17.70
2019-04-20T22:11:44.355Z,17.60
2019-04-20T22:14:18.569Z,17.50
2019-04-20T22:16:49.599Z,17.50
2019-04-20T22:19:33.469Z,17.50
2019-04-20T22:22:00.886Z,17.50
2019-04-20T22:24:39.920Z,17.40
2019-04-20T22:27:03.106Z,17.40
2019-04-20T22:29:24.002Z,17.40
2019-04-20T22:32:00.510Z,17.30
2019-04-20T22:34:28.091Z,17.30
2019-04-20T22:36:57.997Z,17.20
2019-04-20T22:39:39.808Z,17.20
2019-04-20T22:42:08.752Z,17.10
2019-04-20T22:44:36.352Z,17.00
2019-04-20T22:47:13.917Z,16.90
2019-04-20T22:49:53.145Z,16.90
2019-04-20T22:52:26.498Z,16.90
2019-04-20T22:54:55.105Z,16.90
2019-04-20T22:57:30.367Z,16.90
2019-04-20T22:59:50.548Z,16.90
2019-04-20T23:02:16.464Z,16.80
2019-04-20T23:04:47.018Z,16.80
2019-04-20T23:07:16.880Z,16.80
2019-04-20T23:09:52.728Z,16.70
2019-04-20T23:12:23.324Z,16.70
2019-04-20T23:14:50.201Z,16.60
2019-04-20T23:17:26.995Z,16.60
2019-04-20T23:19:56.207Z,16.50
2019-04-20T23:22:32.236Z,16.40
2019-04-20T23:24:55.495Z,16.40
2019-04-20T23:27:31.304Z,16.50
2019-04-20T23:29:58.372Z,16.40
2019-04-20T23:32:30.159Z,16.40
2019-04-20T23:35:05.908Z,16.50
2019-04-20T23:37:35.628Z,16.50
2019-04-20T23:40:08.190Z,16.40
2019-04-20T23:42:44.220Z,16.30
2019-04-20T23:45:28.366Z,16.30
2019-04-20T23:47:58.862Z,16.30
2019-04-20T23:50:57.983Z,16.20
2019-04-20T23:53:13.870Z,16.10
2019-04-20T23:55:29.749Z,16.10
2019-04-20T23:58:06.444Z,16.00
